Time;durP1;ratioP1;P1;durP2;ratioP2;P2;SDS_P1;SDS_P2;PMS_P1;PMS_P2;Temp;Humidity;BMP_temperature;BMP_pressure;BME280_temperature;BME280_humidity;BME280_pressure;Samples;Min_cycle;Max_cycle;Signal;HPM_P1;HPM_P2
2022/07/14 00:00:38;;;;;;;4.93;2.72;;;;;;;21.37;64.21;99480.31;4898861;29;20028;-86
2022/07/14 00:03:04;;;;;;;4.50;2.75;;;;;;;21.43;64.74;99489.50;4914719;29;20219;-86
2022/07/14 00:05:29;;;;;;;6.15;2.70;;;;;;;21.29;63.46;99463.44;4914617;29;20032;-86
2022/07/14 00:07:55;;;;;;;4.70;2.60;;;;;;;21.41;64.35;99480.88;4937611;29;20039;-85
2022/07/14 00:10:20;;;;;;;4.13;2.85;;;;;;;21.26;64.44;99461.91;4936755;29;20075;-86
2022/07/14 00:12:46;;;;;;;4.78;2.67;;;;;;;21.27;64.37;99466.22;4936523;29;20066;-86
2022/07/14 00:15:11;;;;;;;6.28;2.85;;;;;;;21.31;65.38;99480.03;4936748;29;20456;-86
2022/07/14 00:17:36;;;;;;;5.32;2.80;;;;;;;21.22;65.43;99475.59;4936123;29;20146;-86
2022/07/14 00:20:04;;;;;;;5.75;2.90;;;;;;;21.20;65.46;99472.28;4936659;29;20027;-86
2022/07/14 00:22:29;;;;;;;3.47;2.55;;;;;;;21.21;64.33;99482.72;4936124;29;20039;-86
2022/07/14 00:24:54;;;;;;;4.85;2.92;;;;;;;21.20;64.41;99478.41;4936414;29;20677;-85
2022/07/14 00:27:20;;;;;;;5.10;2.70;;;;;;;21.19;64.74;99474.06;4952405;29;20059;-86
2022/07/14 00:29:45;;;;;;;7.60;2.72;;;;;;;21.13;63.29;99478.13;4952313;29;20094;-86
2022/07/14 00:32:11;;;;;;;5.53;2.90;;;;;;;21.16;62.88;99477.84;4952600;29;20035;-86
2022/07/14 00:34:36;;;;;;;4.13;2.40;;;;;;;21.07;63.70;99465.47;4936059;29;20586;-86
2022/07/14 00:37:02;;;;;;;5.13;2.47;;;;;;;21.05;62.96;99471.88;4936165;29;20122;-86
2022/07/14 00:39:54;;;;;;;6.13;2.65;;;;;;;21.10;62.92;99472.28;4956083;28;20050;-86
2022/07/14 00:42:12;;;;;;;3.80;2.50;;;;;;;21.06;62.70;99479.66;4973863;28;20070;-86
2022/07/14 00:44:38;;;;;;;3.70;2.88;;;;;;;21.05;63.31;99483.28;4973718;28;20054;-86
2022/07/14 00:47:03;;;;;;;4.60;2.75;;;;;;;21.04;63.41;99475.50;4974021;28;20063;-86
2022/07/14 00:49:37;;;;;;;7.70;2.83;;;;;;;21.04;63.42;99486.94;4956406;28;20113;-86
2022/07/14 00:52:02;;;;;;;3.25;2.80;;;;;;;20.99;63.55;99480.41;4988857;28;20381;-86
2022/07/14 00:54:29;;;;;;;3.92;2.40;;;;;;;20.96;63.16;99483.31;4973879;28;20027;-87
2022/07/14 00:56:54;;;;;;;4.15;2.60;;;;;;;20.93;63.80;99489.72;4973798;28;20494;-86
2022/07/14 00:59:19;;;;;;;3.70;2.78;;;;;;;20.93;63.73;99495.00;4956367;28;20019;-86
2022/07/14 01:01:45;;;;;;;4.43;2.58;;;;;;;20.88;64.96;99492.78;4956086;28;20062;-86
2022/07/14 01:04:10;;;;;;;7.32;2.88;;;;;;;20.85;64.67;99493.06;4956230;28;20031;-86
2022/07/14 01:06:36;;;;;;;5.05;2.63;;;;;;;20.80;64.39;99487.38;4956271;28;20510;-86
2022/07/14 01:09:02;;;;;;;3.03;2.63;;;;;;;20.81;65.05;99496.13;4956318;28;20031;-86
2022/07/14 01:11:28;;;;;;;3.15;2.70;;;;;;;20.78;64.27;99483.22;4955877;28;20038;-86
2022/07/14 01:13:54;;;;;;;5.03;2.70;;;;;;;20.68;64.83;99483.19;4956178;28;20061;-86
2022/07/14 01:16:19;;;;;;;3.58;2.47;;;;;;;20.73;64.29;99486.28;4955843;28;20495;-86
2022/07/14 01:18:44;;;;;;;2.80;2.50;;;;;;;20.73;64.17;99496.88;4956063;28;20073;-86
2022/07/14 01:21:09;;;;;;;6.30;2.80;;;;;;;20.66;65.17;99490.44;4956125;28;20030;-86
2022/07/14 01:23:35;;;;;;;3.60;2.53;;;;;;;20.64;64.31;99484.44;4973257;28;20044;-85
2022/07/14 01:26:00;;;;;;;4.93;2.70;;;;;;;20.62;63.34;99489.88;4973367;28;20027;-86
2022/07/14 01:28:25;;;;;;;3.78;2.58;;;;;;;20.60;63.22;99499.75;4956151;28;20034;-86
2022/07/14 01:30:51;;;;;;;4.15;3.10;;;;;;;20.64;62.49;99495.03;4973037;28;20082;-85
2022/07/14 01:33:16;;;;;;;3.38;2.65;;;;;;;20.59;62.44;99479.56;4955740;28;20027;-86
2022/07/14 01:35:42;;;;;;;5.65;2.80;;;;;;;20.64;61.91;99495.03;4955887;28;20033;-86
2022/07/14 01:38:07;;;;;;;3.97;2.95;;;;;;;20.70;61.68;99505.06;4988164;28;20027;-86
2022/07/14 01:40:32;;;;;;;3.25;2.53;;;;;;;20.74;61.31;99510.94;4973008;28;20114;-85
2022/07/14 01:42:58;;;;;;;3.28;2.67;;;;;;;20.71;60.94;99492.69;4955860;28;20066;-86
2022/07/14 01:45:23;;;;;;;4.85;2.90;;;;;;;20.73;60.21;99507.44;4955761;28;20027;-85
2022/07/14 01:47:49;;;;;;;3.17;2.83;;;;;;;20.77;60.79;99515.91;4955439;28;20396;-86
2022/07/14 01:50:14;;;;;;;5.85;2.83;;;;;;;20.75;60.58;99523.19;4955787;28;20030;-86
2022/07/14 01:52:40;;;;;;;3.60;2.80;;;;;;;20.76;60.89;99524.84;4955507;28;20034;-86
2022/07/14 01:55:06;;;;;;;6.75;3.05;;;;;;;20.73;60.97;99527.75;4955788;28;20118;-86
2022/07/14 01:57:31;;;;;;;10.35;3.05;;;;;;;20.72;61.47;99520.81;4973252;28;20031;-85
2022/07/14 01:59:56;;;;;;;6.75;2.97;;;;;;;20.75;61.71;99523.19;4976888;28;20494;-86
2022/07/14 02:02:22;;;;;;;3.88;2.88;;;;;;;20.70;61.92;99525.41;4959376;28;20039;-86
2022/07/14 02:04:47;;;;;;;4.60;3.40;;;;;;;20.62;62.60;99508.41;4959405;28;20121;-85
2022/07/14 02:07:12;;;;;;;5.15;2.92;;;;;;;20.59;62.81;99513.13;4959529;28;20097;-85
2022/07/14 02:12:22;;;;;;;6.05;3.00;;;;;;;20.53;63.05;99509.25;4976905;28;20037;-86
2022/07/14 02:14:47;;;;;;;3.72;3.20;;;;;;;20.59;63.36;99524.56;4958977;28;20022;-85
2022/07/14 02:17:12;;;;;;;3.65;3.28;;;;;;;20.54;63.67;99528.59;4959138;28;20047;-86
2022/07/14 02:19:37;;;;;;;3.67;3.33;;;;;;;20.51;63.79;99524.41;4959143;28;20029;-86
2022/07/14 02:22:04;;;;;;;3.95;3.13;;;;;;;20.48;64.19;99523.81;4959380;28;20093;-86
2022/07/14 02:24:29;;;;;;;3.88;3.28;;;;;;;20.40;64.01;99509.50;4959280;28;20031;-86
2022/07/14 02:26:55;;;;;;;3.67;3.05;;;;;;;20.40;64.80;99527.16;4958897;28;20081;-86
2022/07/14 02:29:21;;;;;;;4.35;3.05;;;;;;;20.35;65.10;99524.94;4959005;28;20038;-86
2022/07/14 02:31:47;;;;;;;4.28;2.92;;;;;;;20.24;65.05;99518.94;4958660;28;20027;-86
2022/07/14 02:34:12;;;;;;;4.85;3.03;;;;;;;20.28;65.47;99533.56;4959131;28;20038;-86
2022/07/14 02:36:39;;;;;;;5.07;3.28;;;;;;;20.23;66.04;99527.84;4991150;28;20054;-86
2022/07/14 02:39:04;;;;;;;3.58;2.95;;;;;;;20.22;66.23;99529.63;4976378;28;20027;-86
2022/07/14 02:41:30;;;;;;;4.60;3.20;;;;;;;20.13;66.18;99523.34;4976502;28;20556;-87
2022/07/14 02:43:55;;;;;;;3.25;2.95;;;;;;;20.09;66.47;99518.47;4958465;28;20088;-86
2022/07/14 02:46:20;;;;;;;7.95;3.30;;;;;;;20.11;66.60;99530.59;4958690;28;20049;-86
2022/07/14 02:48:46;;;;;;;7.55;3.92;;;;;;;20.04;66.93;99516.22;4958620;28;20027;-86
2022/07/14 02:51:12;;;;;;;3.92;3.20;;;;;;;20.00;67.40;99521.91;4976041;28;20109;-86
2022/07/14 02:53:37;;;;;;;4.13;3.45;;;;;;;20.02;67.41;99527.94;4958374;28;20034;-86
2022/07/14 02:56:05;;;;;;;4.32;3.47;;;;;;;19.97;67.78;99527.47;4990994;28;20035;-86
2022/07/14 02:58:31;;;;;;;3.63;3.25;;;;;;;19.86;68.20;99509.91;4958522;28;20113;-86
2022/07/14 03:00:56;;;;;;;3.40;3.08;;;;;;;19.92;68.67;99534.00;4975539;28;20037;-86
2022/07/14 03:03:22;;;;;;;4.88;3.25;;;;;;;19.89;68.70;99530.81;4974654;28;20037;-86
2022/07/14 03:05:48;;;;;;;6.82;3.72;;;;;;;19.83;69.07;99529.50;4958228;28;20031;-86
2022/07/14 03:08:14;;;;;;;4.80;3.40;;;;;;;19.82;69.34;99535.78;4958280;28;20030;-86
2022/07/14 03:10:40;;;;;;;5.70;3.53;;;;;;;19.85;69.35;99550.53;4958132;28;20026;-86
2022/07/14 03:13:06;;;;;;;4.47;3.20;;;;;;;19.82;69.82;99548.16;4958144;28;20479;-86
2022/07/14 03:15:32;;;;;;;4.22;3.30;;;;;;;19.75;69.75;99536.44;4957863;28;20121;-86
2022/07/14 03:17:58;;;;;;;5.20;3.92;;;;;;;19.76;70.10;99535.47;4990377;28;20062;-86
2022/07/14 03:20:23;;;;;;;5.15;3.80;;;;;;;19.82;69.97;99556.91;4990500;28;20393;-86
2022/07/14 03:22:48;;;;;;;3.90;3.50;;;;;;;19.83;70.19;99555.09;4958008;28;20030;-86
2022/07/14 03:25:14;;;;;;;4.22;3.58;;;;;;;19.83;70.33;99563.88;4957951;28;20035;-86
2022/07/14 03:27:41;;;;;;;5.40;3.75;;;;;;;19.80;70.36;99563.28;4975049;28;20031;-86
2022/07/14 03:30:08;;;;;;;4.60;3.50;;;;;;;19.87;70.54;99572.38;4975489;28;20031;-86
2022/07/14 03:32:33;;;;;;;5.53;4.13;;;;;;;19.88;70.80;99579.31;4990276;28;20035;-85
2022/07/14 03:34:59;;;;;;;3.80;3.20;;;;;;;19.79;70.72;99567.75;4957876;28;20085;-86
2022/07/14 03:37:25;;;;;;;3.78;3.30;;;;;;;19.86;70.94;99587.41;4990374;28;20034;-86
2022/07/14 03:39:50;;;;;;;3.75;3.42;;;;;;;19.87;71.72;99586.44;4957619;28;20034;-86
2022/07/14 03:42:16;;;;;;;5.32;3.33;;;;;;;19.86;71.81;99583.94;4957789;28;20117;-86
2022/07/14 03:44:41;;;;;;;5.05;3.25;;;;;;;19.86;71.84;99584.75;4957451;28;20034;-86
2022/07/14 03:47:07;;;;;;;5.85;3.40;;;;;;;19.69;71.84;99575.63;4957808;28;20031;-87
2022/07/14 03:49:32;;;;;;;4.45;3.30;;;;;;;19.83;71.60;99595.59;4975124;28;20054;-86
2022/07/14 03:51:57;;;;;;;5.40;3.45;;;;;;;19.84;72.32;99615.75;4973498;28;20031;-86
2022/07/14 03:54:23;;;;;;;4.63;3.50;;;;;;;19.94;72.90;99634.31;4957538;28;20115;-86
2022/07/14 03:56:48;;;;;;;4.65;3.40;;;;;;;19.92;73.21;99625.66;4957108;28;20027;-87
2022/07/14 03:59:13;;;;;;;4.63;3.40;;;;;;;20.00;73.42;99636.44;4957404;28;20053;-87
2022/07/14 04:01:39;;;;;;;4.57;3.55;;;;;;;20.00;73.39;99640.88;4957286;28;20119;-87
2022/07/14 04:04:04;;;;;;;7.28;3.45;;;;;;;20.04;73.83;99642.28;4957594;28;20135;-87
2022/07/14 04:06:30;;;;;;;3.75;3.38;;;;;;;20.10;73.76;99652.31;4974820;28;20038;-87
2022/07/14 04:08:57;;;;;;;4.00;3.40;;;;;;;20.17;73.35;99656.97;4956958;28;20486;-88
2022/07/14 04:11:22;;;;;;;4.03;3.47;;;;;;;20.19;73.12;99655.03;4957147;28;20053;-87
2022/07/14 04:13:48;;;;;;;7.18;3.10;;;;;;;20.16;73.38;99647.38;4956955;28;20037;-87
2022/07/14 04:16:13;;;;;;;4.13;3.20;;;;;;;20.18;73.75;99655.16;4957004;28;20054;-87
2022/07/14 04:18:39;;;;;;;3.22;2.92;;;;;;;20.18;74.10;99655.16;4956981;28;20371;-87
2022/07/14 04:21:08;;;;;;;3.97;3.58;;;;;;;20.13;74.00;99641.50;4956828;28;20085;-87
2022/07/14 04:23:33;;;;;;;4.88;3.53;;;;;;;20.11;74.30;99648.75;4957055;28;20039;-87
2022/07/14 04:26:00;;;;;;;4.93;3.50;;;;;;;20.07;74.55;99650.81;4956712;28;20039;-87
2022/07/14 04:28:25;;;;;;;5.05;3.80;;;;;;;20.08;74.74;99649.00;4974127;28;20023;-87
2022/07/14 04:30:51;;;;;;;3.55;3.25;;;;;;;20.07;75.46;99664.03;4956814;28;20033;-87
2022/07/14 04:33:20;;;;;;;5.35;3.40;;;;;;;20.08;75.54;99667.50;4956794;28;20023;-87
2022/07/14 04:35:45;;;;;;;4.78;3.58;;;;;;;20.09;75.26;99656.78;4956623;28;20470;-87
2022/07/14 04:38:10;;;;;;;8.93;3.97;;;;;;;20.34;74.86;99650.22;4956723;28;20050;-88
2022/07/14 04:40:36;;;;;;;4.07;3.20;;;;;;;20.65;73.68;99656.34;4956646;28;20058;-87
2022/07/14 04:43:01;;;;;;;3.95;3.22;;;;;;;20.86;72.04;99664.19;4956342;28;20114;-87
2022/07/14 04:45:27;;;;;;;4.95;3.25;;;;;;;21.25;71.27;99661.56;4956764;28;20031;-88
2022/07/14 04:47:52;;;;;;;5.25;3.45;;;;;;;21.46;69.79;99655.31;4956526;28;20046;-87
2022/07/14 04:53:01;;;;;;;6.32;3.95;;;;;;;22.21;66.58;99662.44;4973744;28;20034;-87
2022/07/14 04:55:27;;;;;;;4.50;3.60;;;;;;;22.30;66.45;99671.34;4956765;28;20026;-87
2022/07/14 04:57:53;;;;;;;4.65;4.13;;;;;;;22.23;65.83;99679.03;4956405;28;20117;-87
2022/07/14 05:00:18;;;;;;;5.80;4.15;;;;;;;22.11;66.17;99678.31;4956440;28;20182;-88
2022/07/14 05:02:44;;;;;;;8.98;3.78;;;;;;;21.88;67.11;99671.72;4956101;28;20117;-87
2022/07/14 05:05:10;;;;;;;3.67;3.33;;;;;;;21.75;67.86;99663.22;4956299;28;20121;-87
2022/07/14 05:07:36;;;;;;;3.92;3.20;;;;;;;21.81;68.15;99667.94;4956247;28;20031;-87
2022/07/14 05:10:03;;;;;;;8.60;3.45;;;;;;;21.94;68.30;99671.13;4987935;28;20042;-88
2022/07/14 05:12:29;;;;;;;4.18;3.40;;;;;;;21.97;67.39;99651.44;4988511;28;20114;-88
2022/07/14 05:14:54;;;;;;;8.65;3.75;;;;;;;22.04;67.46;99661.34;4973365;28;20118;-87
2022/07/14 05:17:20;;;;;;;6.28;3.45;;;;;;;21.95;68.16;99671.97;4951368;29;20672;-88
2022/07/14 05:19:46;;;;;;;4.53;3.40;;;;;;;21.81;68.78;99676.75;4951590;29;20493;-87
2022/07/14 05:22:11;;;;;;;3.15;2.85;;;;;;;21.67;68.95;99663.94;4951672;29;20047;-87
2022/07/14 05:24:37;;;;;;;4.32;3.10;;;;;;;21.59;69.08;99658.50;4935546;29;20027;-87
2022/07/14 05:27:03;;;;;;;4.05;3.05;;;;;;;21.58;69.66;99676.22;4951406;29;20130;-87
2022/07/14 05:29:28;;;;;;;4.00;3.50;;;;;;;21.44;69.48;99666.03;4951857;29;20031;-87
2022/07/14 05:31:54;;;;;;;4.10;3.35;;;;;;;21.48;69.16;99685.97;4950880;29;20689;-87
2022/07/14 05:34:19;;;;;;;4.20;3.20;;;;;;;21.33;68.99;99672.34;4951158;29;20526;-87
2022/07/14 05:36:44;;;;;;;3.75;3.10;;;;;;;21.43;68.32;99683.75;4951177;29;20114;-87
2022/07/14 05:39:10;;;;;;;3.72;2.80;;;;;;;21.54;67.94;99681.94;4951438;29;20051;-87
2022/07/14 05:41:35;;;;;;;3.55;2.90;;;;;;;21.68;67.66;99692.94;4951311;29;20054;-88
2022/07/14 05:44:00;;;;;;;4.57;2.80;;;;;;;21.86;66.43;99694.88;4951100;29;20046;-87
2022/07/14 05:46:26;;;;;;;3.60;2.90;;;;;;;21.95;66.31;99683.41;4951392;29;20090;-87
2022/07/14 05:48:52;;;;;;;4.93;3.05;;;;;;;22.00;65.99;99669.72;4966838;28;20479;-87
2022/07/14 05:51:19;;;;;;;7.53;2.92;;;;;;;22.14;65.72;99694.00;4955650;28;20030;-87
2022/07/14 05:53:45;;;;;;;3.00;2.60;;;;;;;22.04;65.59;99682.56;4955408;28;20027;-87
2022/07/14 05:56:11;;;;;;;3.40;3.10;;;;;;;22.10;65.67;99686.44;4955889;28;20467;-87
2022/07/14 05:58:38;;;;;;;4.50;2.95;;;;;;;22.15;64.68;99686.88;4955788;28;20034;-88
2022/07/14 06:01:04;;;;;;;3.40;3.10;;;;;;;22.18;64.29;99675.97;4955748;28;20035;-88
2022/07/14 06:03:30;;;;;;;4.10;2.97;;;;;;;22.21;64.67;99673.03;4955743;28;20117;-87
2022/07/14 06:05:57;;;;;;;3.55;3.17;;;;;;;22.32;65.12;99688.75;4972860;28;20457;-87
2022/07/14 06:08:23;;;;;;;4.53;3.55;;;;;;;22.37;64.96;99681.19;4955560;28;20364;-88
2022/07/14 06:10:48;;;;;;;4.38;3.28;;;;;;;22.54;64.97;99689.34;4955627;28;20037;-88
2022/07/14 06:13:14;;;;;;;7.47;3.75;;;;;;;22.76;65.23;99691.63;4955420;28;20114;-88
2022/07/14 06:15:39;;;;;;;4.05;3.42;;;;;;;23.04;64.68;99702.25;4955430;28;20027;-88
2022/07/14 06:18:04;;;;;;;4.45;3.67;;;;;;;23.15;64.27;99694.06;4955390;28;20031;-87
2022/07/14 06:20:30;;;;;;;4.75;3.47;;;;;;;23.12;63.32;99689.88;4955501;28;20026;-87
2022/07/14 06:22:55;;;;;;;6.80;3.38;;;;;;;23.22;63.86;99697.81;4955123;28;20035;-88
2022/07/14 06:25:20;;;;;;;6.78;4.25;;;;;;;23.17;63.97;99697.41;4955397;28;20489;-88
2022/07/14 06:27:46;;;;;;;5.45;3.75;;;;;;;23.08;64.29;99696.47;4955518;28;20030;-88
2022/07/14 06:30:11;;;;;;;4.10;3.45;;;;;;;23.04;65.25;99691.63;4955358;28;20033;-87
2022/07/14 06:32:40;;;;;;;3.80;3.38;;;;;;;23.07;64.29;99691.31;4955367;28;20038;-87
2022/07/14 06:35:07;;;;;;;3.63;3.33;;;;;;;23.10;64.39;99688.38;4955056;28;20110;-88
2022/07/14 06:37:34;;;;;;;4.85;3.40;;;;;;;23.19;64.47;99692.78;4955245;28;20398;-88
2022/07/14 06:40:03;;;;;;;4.75;3.70;;;;;;;22.98;62.79;99665.69;4954972;28;20027;-87
2022/07/14 06:42:29;;;;;;;5.18;3.40;;;;;;;23.02;63.48;99686.47;4955500;28;20034;-88
2022/07/14 06:44:54;;;;;;;3.90;3.22;;;;;;;23.04;65.06;99691.63;4957633;28;20475;-87
2022/07/14 06:47:19;;;;;;;4.18;3.58;;;;;;;23.12;64.23;99697.84;4976249;28;20030;-88
2022/07/14 06:49:45;;;;;;;4.22;3.15;;;;;;;23.26;63.97;99701.81;4958494;28;20019;-87
2022/07/14 06:52:10;;;;;;;5.10;3.47;;;;;;;23.74;62.17;99697.09;4959434;28;20038;-87
2022/07/14 06:54:36;;;;;;;4.53;3.35;;;;;;;24.33;60.16;99693.66;4958714;28;20026;-88
2022/07/14 06:57:01;;;;;;;5.32;3.45;;;;;;;24.76;58.80;99677.72;4990687;28;20026;-88
2022/07/14 06:59:26;;;;;;;6.70;3.78;;;;;;;24.88;58.19;99690.56;4974651;28;20030;-88
2022/07/14 07:01:52;;;;;;;3.58;3.20;;;;;;;25.24;56.35;99692.16;4958300;28;20086;-88
2022/07/14 07:04:17;;;;;;;4.80;3.72;;;;;;;25.60;54.69;99692.69;4958445;28;20053;-88
2022/07/14 07:06:45;;;;;;;3.55;3.25;;;;;;;26.36;54.40;99686.06;4966428;28;20129;-88
2022/07/14 07:09:15;;;;;;;5.40;3.33;;;;;;;27.37;50.57;99685.22;4977490;28;20065;-88
2022/07/14 07:11:41;;;;;;;3.15;2.85;;;;;;;27.50;50.16;99674.75;4977463;28;20430;-88
2022/07/14 07:14:07;;;;;;;4.38;3.08;;;;;;;27.65;49.08;99682.00;4994883;28;20137;-89
2022/07/14 07:16:33;;;;;;;3.85;2.90;;;;;;;28.34;47.75;99659.38;4994882;28;20046;-88
2022/07/14 07:18:58;;;;;;;4.50;2.83;;;;;;;29.61;45.20;99684.94;4977267;28;20029;-88
2022/07/14 07:21:23;;;;;;;4.13;3.15;;;;;;;30.29;41.33;99675.31;4993946;28;20030;-88
2022/07/14 07:23:50;;;;;;;3.90;2.75;;;;;;;30.37;41.48;99666.25;4977713;28;20466;-88
2022/07/14 07:26:17;;;;;;;3.90;2.67;;;;;;;30.24;41.33;99662.47;4995368;28;20034;-88
2022/07/14 07:28:43;;;;;;;4.47;2.78;;;;;;;30.18;42.19;99665.16;4977196;28;20030;-88
2022/07/14 07:31:08;;;;;;;3.83;2.78;;;;;;;30.37;41.24;99659.03;4972549;28;20047;-88
2022/07/14 07:33:33;;;;;;;3.15;2.47;;;;;;;30.61;40.39;99656.88;4972688;28;20490;-89
2022/07/14 07:36:00;;;;;;;3.80;2.75;;;;;;;30.54;39.85;99663.03;4956504;28;20049;-89
2022/07/14 07:38:26;;;;;;;3.65;2.85;;;;;;;30.24;39.97;99658.97;4956698;28;20047;-89
2022/07/14 07:40:53;;;;;;;2.85;2.63;;;;;;;29.71;40.74;99651.38;4956357;28;20054;-88
2022/07/14 07:43:21;;;;;;;2.60;2.40;;;;;;;29.66;41.58;99664.53;4956541;28;20033;-89
2022/07/14 07:45:47;;;;;;;4.72;2.90;;;;;;;30.32;41.43;99646.19;4972608;28;20071;-89
2022/07/14 07:48:12;;;;;;;4.47;2.72;;;;;;;30.12;39.57;99660.53;4972289;28;20070;-89
2022/07/14 07:50:41;;;;;;;3.40;2.63;;;;;;;29.44;42.11;99658.34;4956285;28;20117;-88
2022/07/14 07:53:07;;;;;;;3.03;2.63;;;;;;;28.98;43.25;99664.09;4956066;28;20022;-89
2022/07/14 07:55:32;;;;;;;4.45;2.80;;;;;;;28.06;43.86;99663.72;4971654;28;20046;-87
2022/07/14 07:57:59;;;;;;;4.25;3.05;;;;;;;27.04;46.17;99671.22;4956387;28;20027;-87
2022/07/14 08:00:25;;;;;;;4.25;2.80;;;;;;;26.24;48.17;99647.38;4972659;28;20037;-87
2022/07/14 08:02:55;;;;;;;5.82;3.10;;;;;;;25.73;50.66;99671.66;4989710;28;20034;-87
2022/07/14 08:05:23;;;;;;;5.57;2.83;;;;;;;25.49;51.41;99677.00;4976866;28;20030;-88
2022/07/14 08:07:49;;;;;;;6.28;3.13;;;;;;;25.31;52.93;99675.34;4976698;28;20029;-87
2022/07/14 08:10:15;;;;;;;3.85;2.90;;;;;;;25.35;53.44;99673.19;4976392;28;20030;-87
2022/07/14 08:12:44;;;;;;;3.33;2.88;;;;;;;25.53;54.02;99675.66;4976524;28;20023;-87
2022/07/14 08:15:10;;;;;;;4.18;3.10;;;;;;;25.30;52.59;99670.19;4976139;28;20430;-87
2022/07/14 08:17:36;;;;;;;4.90;3.17;;;;;;;24.94;53.84;99669.59;4976460;28;20053;-87
2022/07/14 08:20:03;;;;;;;3.75;3.10;;;;;;;24.68;54.90;99670.53;4976379;28;20027;-87
2022/07/14 08:22:28;;;;;;;3.97;2.88;;;;;;;24.53;55.12;99667.66;4976458;28;20049;-86
2022/07/14 08:24:55;;;;;;;3.88;2.90;;;;;;;24.69;55.89;99669.50;4993723;28;20022;-88
2022/07/14 08:27:22;;;;;;;6.03;2.80;;;;;;;24.91;55.88;99669.94;4976256;28;20521;-87
2022/07/14 08:29:48;;;;;;;5.70;3.00;;;;;;;25.10;55.22;99669.66;4976355;28;20050;-87
2022/07/14 08:32:13;;;;;;;5.85;3.00;;;;;;;25.39;54.79;99670.00;4993466;28;20423;-87
2022/07/14 08:34:38;;;;;;;4.55;2.80;;;;;;;25.14;52.80;99658.50;4975748;28;20121;-87
2022/07/14 08:37:05;;;;;;;3.95;2.92;;;;;;;25.08;53.95;99668.97;4990695;28;20037;-88
2022/07/14 08:39:31;;;;;;;3.15;2.72;;;;;;;24.95;53.72;99666.78;4974629;28;20026;-88
2022/07/14 08:42:01;;;;;;;6.40;2.53;;;;;;;24.71;55.10;99629.41;4975511;28;20030;-87
2022/07/14 08:44:28;;;;;;;3.95;2.75;;;;;;;24.82;55.63;99655.75;4975791;28;20022;-87
2022/07/14 08:46:54;;;;;;;3.45;2.92;;;;;;;24.77;56.02;99648.22;4975982;28;20042;-88
2022/07/14 08:49:20;;;;;;;4.18;2.78;;;;;;;24.91;56.63;99660.09;4975617;28;20026;-88
2022/07/14 08:51:47;;;;;;;3.25;2.85;;;;;;;24.95;56.21;99637.47;4975779;28;20029;-88
2022/07/14 08:54:12;;;;;;;3.05;2.42;;;;;;;25.12;56.16;99649.00;4992904;28;20026;-88
2022/07/14 08:56:39;;;;;;;6.05;3.00;;;;;;;25.20;56.18;99650.84;4991913;28;20097;-88
2022/07/14 08:59:05;;;;;;;11.15;3.15;;;;;;;25.30;54.98;99654.19;4992881;28;20022;-88
2022/07/14 09:01:31;;;;;;;3.83;2.95;;;;;;;25.31;55.71;99645.19;4993283;28;20041;-87
2022/07/14 09:03:59;;;;;;;13.43;3.53;;;;;;;25.37;55.00;99645.38;4975790;28;20027;-89
2022/07/14 09:06:47;;;;;;;6.45;3.38;;;;;;;25.45;54.44;99639.19;4991743;28;20030;-89
2022/07/14 09:09:18;;;;;;;5.32;2.85;;;;;;;25.51;55.55;99635.84;4975118;28;20050;-87
2022/07/14 09:11:56;;;;;;;4.50;2.90;;;;;;;25.55;55.16;99639.84;4975483;28;20038;-90
2022/07/14 09:14:22;;;;;;;5.53;3.25;;;;;;;25.66;55.58;99645.81;4991500;28;20030;-85
2022/07/14 09:16:48;;;;;;;3.92;3.50;;;;;;;25.70;55.21;99631.16;4975179;28;20372;-88
2022/07/14 09:19:15;;;;;;;4.53;3.22;;;;;;;25.71;54.89;99628.34;4975369;28;20034;-91
2022/07/14 09:21:46;;;;;;;4.90;3.28;;;;;;;25.73;55.04;99631.66;4975491;28;20030;-87
2022/07/14 09:24:16;;;;;;;6.60;3.00;;;;;;;25.66;55.07;99635.16;4975278;28;20049;-91
2022/07/14 09:26:49;;;;;;;33.78;5.43;;;;;;;25.60;54.38;99626.00;4975918;28;20031;-88
2022/07/14 09:29:26;;;;;;;6.05;3.88;;;;;;;25.69;55.79;99622.31;4975104;28;20494;-83
2022/07/14 09:31:52;;;;;;;5.47;3.42;;;;;;;25.81;55.13;99621.00;4992595;28;20038;-84
2022/07/14 09:34:31;;;;;;;5.20;3.20;;;;;;;25.92;54.65;99621.66;4974909;28;20130;-84
2022/07/14 09:37:17;;;;;;;6.60;3.50;;;;;;;25.84;54.46;99593.16;4992859;28;20032;-84
2022/07/14 09:39:59;;;;;;;4.63;3.53;;;;;;;25.96;53.54;99621.13;4975238;28;20022;-84
2022/07/14 09:42:45;;;;;;;4.13;3.55;;;;;;;25.94;54.50;99625.78;4951151;29;20106;-84
2022/07/14 09:45:11;;;;;;;4.47;3.45;;;;;;;25.99;53.86;99618.09;4951174;29;20039;-85
2022/07/14 09:48:07;;;;;;;5.97;3.20;;;;;;;26.05;54.97;99605.94;4951257;29;20098;-84
2022/07/14 09:50:35;;;;;;;8.50;3.33;;;;;;;26.00;53.88;99614.47;4878581;29;20489;-84
2022/07/14 09:53:18;;;;;;;5.50;3.35;;;;;;;26.06;55.71;99605.75;4893982;29;20045;-84
2022/07/14 09:55:51;;;;;;;9.30;4.32;;;;;;;25.96;53.25;99599.78;4894061;29;20041;-84
2022/07/14 09:58:18;;;;;;;4.72;2.97;;;;;;;25.96;54.70;99591.78;4878450;29;20079;-84
2022/07/14 10:00:54;;;;;;;4.95;3.65;;;;;;;26.01;54.31;99599.28;4894240;29;20071;-83
2022/07/14 10:03:19;;;;;;;4.80;3.20;;;;;;;26.01;54.51;99600.09;4894107;29;20052;-84
2022/07/14 10:05:45;;;;;;;3.45;3.15;;;;;;;26.11;53.78;99607.91;4894243;29;20044;-89
2022/07/14 10:08:11;;;;;;;4.40;3.00;;;;;;;26.09;54.10;99596.56;4893816;29;20119;-84
2022/07/14 10:10:36;;;;;;;3.83;3.17;;;;;;;26.06;53.38;99600.41;4893897;29;20488;-84
2022/07/14 10:13:04;;;;;;;6.28;2.90;;;;;;;25.96;53.55;99599.78;4900266;29;20043;-84
2022/07/14 10:15:30;;;;;;;5.85;4.57;;;;;;;25.84;53.54;99596.66;4912632;29;20037;-84
2022/07/14 10:17:59;;;;;;;4.30;3.50;;;;;;;25.81;54.38;99588.16;4912852;29;20028;-84
2022/07/14 10:20:25;;;;;;;5.18;3.67;;;;;;;25.83;53.93;99596.81;4902292;29;20408;-84
2022/07/14 10:22:54;;;;;;;5.05;3.00;;;;;;;25.64;54.36;99600.66;4916520;29;20094;-83
2022/07/14 10:25:20;;;;;;;8.40;3.17;;;;;;;25.55;55.16;99599.00;4900424;29;20040;-84
2022/07/14 10:27:47;;;;;;;6.22;3.25;;;;;;;25.38;55.17;99596.38;4941431;28;20342;-84
2022/07/14 10:30:12;;;;;;;6.07;3.55;;;;;;;25.35;54.67;99607.34;4976044;28;20434;-84
2022/07/14 10:32:50;;;;;;;5.40;3.50;;;;;;;25.32;55.63;99604.19;4958711;28;20019;-83
2022/07/14 10:35:40;;;;;;;5.50;3.58;;;;;;;25.24;55.57;99604.19;4976067;28;20031;-83
2022/07/14 10:38:11;;;;;;;5.30;3.25;;;;;;;25.24;56.10;99597.06;4975832;28;20034;-84
2022/07/14 10:40:37;;;;;;;5.68;3.38;;;;;;;25.33;55.94;99601.38;4976091;28;20050;-83
2022/07/14 10:43:22;;;;;;;4.60;3.33;;;;;;;25.22;55.16;99588.38;4976067;28;20031;-84
2022/07/14 10:45:54;;;;;;;5.03;3.10;;;;;;;25.25;56.78;99577.38;4979115;28;20022;-84
2022/07/14 10:48:33;;;;;;;9.73;3.35;;;;;;;25.33;56.93;99557.88;4977750;28;20022;-83
2022/07/14 10:51:14;;;;;;;3.97;3.30;;;;;;;25.52;55.95;99586.00;4995398;28;20088;-84
2022/07/14 10:53:58;;;;;;;7.70;3.60;;;;;;;25.66;56.62;99569.31;4995123;28;20113;-83
2022/07/14 10:56:25;;;;;;;5.13;3.72;;;;;;;25.80;57.23;99570.47;4953627;29;20554;-83
2022/07/14 10:59:31;;;;;;;4.68;3.70;;;;;;;26.08;56.04;99574.41;4954015;29;20428;-84
2022/07/14 11:02:12;;;;;;;4.72;3.90;;;;;;;26.22;54.90;99561.31;4937420;29;20043;-84
2022/07/14 11:05:02;;;;;;;4.88;3.80;;;;;;;26.33;53.34;99568.91;4953982;29;20356;-83
2022/07/14 11:07:40;;;;;;;9.88;3.72;;;;;;;26.36;52.85;99563.22;4954083;29;20031;-84
2022/07/14 11:10:17;;;;;;;4.15;3.75;;;;;;;26.25;52.72;99555.59;4937530;29;20111;-84
2022/07/14 11:13:05;;;;;;;6.25;4.05;;;;;;;26.24;53.37;99559.28;4953944;29;20073;-84
2022/07/14 11:15:40;;;;;;;4.55;3.85;;;;;;;26.31;54.11;99553.09;4953535;29;20031;-84
2022/07/14 11:18:17;;;;;;;4.28;3.78;;;;;;;26.37;53.14;99546.19;4937418;29;20043;-82
2022/07/14 11:20:55;;;;;;;6.20;4.20;;;;;;;26.37;52.99;99546.19;4953795;29;20086;-83
2022/07/14 11:23:23;;;;;;;5.53;3.25;;;;;;;26.33;53.56;99536.88;4937327;29;20039;-84
2022/07/14 11:25:53;;;;;;;5.15;3.58;;;;;;;26.29;52.65;99544.41;4953634;29;20575;-83
2022/07/14 11:28:50;;;;;;;4.93;3.53;;;;;;;26.02;53.04;99545.72;4989085;28;20097;-83
2022/07/14 11:31:18;;;;;;;11.30;4.15;;;;;;;25.64;53.69;99526.81;4993035;28;20030;-83
2022/07/14 11:37:02;;;;;;;6.30;4.00;;;;;;;25.27;54.59;99546.03;4994493;28;20085;-83
2022/07/14 11:39:36;;;;;;;6.20;3.60;;;;;;;25.06;55.21;99525.22;4994320;28;20030;-82
2022/07/14 11:42:03;;;;;;;4.82;3.10;;;;;;;25.08;54.91;99541.91;4994533;28;20092;-83
2022/07/14 11:44:40;;;;;;;5.38;3.38;;;;;;;25.10;55.63;99526.56;4994247;28;20026;-82